sensor_id;sensor_type;location;lat;lon;timestamp;P1;durP1;ratioP1;P2;durP2;ratioP2
75589;SDS011;64169;47.240;11.312;2023-04-10T00:01:31;9.00;;;4.60;;
75589;SDS011;64169;47.240;11.312;2023-04-10T00:03:59;8.23;;;3.08;;
75589;SDS011;64169;47.240;11.312;2023-04-10T00:06:25;9.10;;;3.88;;
75589;SDS011;64169;47.240;11.312;2023-04-10T00:08:52;10.27;;;3.38;;
75589;SDS011;64169;47.240;11.312;2023-04-10T00:11:17;7.32;;;3.10;;
75589;SDS011;64169;47.240;11.312;2023-04-10T00:13:43;8.98;;;3.53;;
75589;SDS011;64169;47.240;11.312;2023-04-10T00:16:08;10.05;;;4.00;;
75589;SDS011;64169;47.240;11.312;2023-04-10T00:18:34;8.88;;;3.17;;
75589;SDS011;64169;47.240;11.312;2023-04-10T00:21:01;7.80;;;3.25;;
75589;SDS011;64169;47.240;11.312;2023-04-10T00:23:27;9.65;;;3.85;;
75589;SDS011;64169;47.240;11.312;2023-04-10T00:25:52;11.60;;;4.43;;
75589;SDS011;64169;47.240;11.312;2023-04-10T00:28:18;11.10;;;3.72;;
75589;SDS011;64169;47.240;11.312;2023-04-10T00:30:43;10.13;;;3.95;;
75589;SDS011;64169;47.240;11.312;2023-04-10T00:33:08;10.57;;;4.15;;
75589;SDS011;64169;47.240;11.312;2023-04-10T00:35:34;11.05;;;4.10;;
75589;SDS011;64169;47.240;11.312;2023-04-10T00:37:59;11.07;;;3.75;;
75589;SDS011;64169;47.240;11.312;2023-04-10T00:40:25;10.80;;;3.38;;
75589;SDS011;64169;47.240;11.312;2023-04-10T00:42:50;8.75;;;3.30;;
75589;SDS011;64169;47.240;11.312;2023-04-10T00:45:15;9.32;;;3.65;;
75589;SDS011;64169;47.240;11.312;2023-04-10T00:47:41;10.05;;;3.67;;
75589;SDS011;64169;47.240;11.312;2023-04-10T00:50:06;9.25;;;3.45;;
75589;SDS011;64169;47.240;11.312;2023-04-10T00:52:32;10.32;;;3.67;;
75589;SDS011;64169;47.240;11.312;2023-04-10T00:54:58;9.85;;;4.10;;
75589;SDS011;64169;47.240;11.312;2023-04-10T00:57:23;11.20;;;3.92;;
75589;SDS011;64169;47.240;11.312;2023-04-10T00:59:49;11.48;;;4.10;;
75589;SDS011;64169;47.240;11.312;2023-04-10T01:02:16;10.18;;;4.05;;
75589;SDS011;64169;47.240;11.312;2023-04-10T01:04:41;10.18;;;4.13;;
75589;SDS011;64169;47.240;11.312;2023-04-10T01:07:57;9.60;;;3.08;;
75589;SDS011;64169;47.240;11.312;2023-04-10T01:10:17;9.70;;;2.95;;
75589;SDS011;64169;47.240;11.312;2023-04-10T01:12:57;10.35;;;3.20;;
75589;SDS011;64169;47.240;11.312;2023-04-10T01:15:25;7.47;;;2.67;;
75589;SDS011;64169;47.240;11.312;2023-04-10T01:17:57;8.05;;;2.85;;
75589;SDS011;64169;47.240;11.312;2023-04-10T01:20:31;11.35;;;4.07;;
75589;SDS011;64169;47.240;11.312;2023-04-10T01:25:55;10.73;;;3.10;;
75589;SDS011;64169;47.240;11.312;2023-04-10T01:31:35;8.80;;;2.80;;
75589;SDS011;64169;47.240;11.312;2023-04-10T01:34:04;6.32;;;2.58;;
75589;SDS011;64169;47.240;11.312;2023-04-10T01:36:35;8.77;;;2.83;;
75589;SDS011;64169;47.240;11.312;2023-04-10T01:39:02;7.07;;;2.70;;
75589;SDS011;64169;47.240;11.312;2023-04-10T01:41:28;8.00;;;2.75;;
75589;SDS011;64169;47.240;11.312;2023-04-10T01:43:55;8.00;;;3.03;;
75589;SDS011;64169;47.240;11.312;2023-04-10T01:46:22;8.52;;;3.22;;
75589;SDS011;64169;47.240;11.312;2023-04-10T01:48:48;8.98;;;3.03;;
75589;SDS011;64169;47.240;11.312;2023-04-10T01:51:14;8.93;;;3.20;;
75589;SDS011;64169;47.240;11.312;2023-04-10T01:53:40;9.90;;;3.50;;
75589;SDS011;64169;47.240;11.312;2023-04-10T01:56:08;7.97;;;2.67;;
75589;SDS011;64169;47.240;11.312;2023-04-10T01:58:34;7.90;;;2.78;;
75589;SDS011;64169;47.240;11.312;2023-04-10T02:01:00;8.38;;;2.88;;
75589;SDS011;64169;47.240;11.312;2023-04-10T02:03:26;8.68;;;3.03;;
75589;SDS011;64169;47.240;11.312;2023-04-10T02:08:35;7.90;;;2.67;;
75589;SDS011;64169;47.240;11.312;2023-04-10T02:11:12;8.15;;;2.60;;
75589;SDS011;64169;47.240;11.312;2023-04-10T02:13:40;8.60;;;3.20;;
75589;SDS011;64169;47.240;11.312;2023-04-10T02:16:06;7.38;;;2.80;;
75589;SDS011;64169;47.240;11.312;2023-04-10T02:18:33;9.65;;;2.97;;
75589;SDS011;64169;47.240;11.312;2023-04-10T02:20:59;10.82;;;3.08;;
75589;SDS011;64169;47.240;11.312;2023-04-10T02:23:25;8.43;;;3.40;;
75589;SDS011;64169;47.240;11.312;2023-04-10T02:25:51;7.03;;;2.90;;
75589;SDS011;64169;47.240;11.312;2023-04-10T02:28:16;8.60;;;3.05;;
75589;SDS011;64169;47.240;11.312;2023-04-10T02:30:41;9.88;;;2.63;;
75589;SDS011;64169;47.240;11.312;2023-04-10T02:33:07;7.60;;;2.53;;
75589;SDS011;64169;47.240;11.312;2023-04-10T02:35:33;6.57;;;2.70;;
75589;SDS011;64169;47.240;11.312;2023-04-10T02:37:58;7.90;;;2.83;;
75589;SDS011;64169;47.240;11.312;2023-04-10T02:40:24;7.93;;;3.17;;
75589;SDS011;64169;47.240;11.312;2023-04-10T02:42:49;6.82;;;2.83;;
75589;SDS011;64169;47.240;11.312;2023-04-10T02:45:15;7.30;;;2.17;;
75589;SDS011;64169;47.240;11.312;2023-04-10T02:47:41;8.35;;;2.60;;
75589;SDS011;64169;47.240;11.312;2023-04-10T02:50:06;8.48;;;3.40;;
75589;SDS011;64169;47.240;11.312;2023-04-10T02:52:32;8.77;;;3.25;;
75589;SDS011;64169;47.240;11.312;2023-04-10T02:54:57;8.68;;;3.72;;
75589;SDS011;64169;47.240;11.312;2023-04-10T02:57:22;8.85;;;3.55;;
75589;SDS011;64169;47.240;11.312;2023-04-10T02:59:49;9.38;;;3.47;;
75589;SDS011;64169;47.240;11.312;2023-04-10T03:02:15;9.35;;;2.97;;
75589;SDS011;64169;47.240;11.312;2023-04-10T03:04:40;12.20;;;4.53;;
75589;SDS011;64169;47.240;11.312;2023-04-10T03:07:07;8.77;;;3.38;;
75589;SDS011;64169;47.240;11.312;2023-04-10T03:09:32;7.47;;;2.78;;
75589;SDS011;64169;47.240;11.312;2023-04-10T03:11:57;8.45;;;3.03;;
75589;SDS011;64169;47.240;11.312;2023-04-10T03:14:23;9.45;;;3.25;;
75589;SDS011;64169;47.240;11.312;2023-04-10T03:16:48;9.00;;;3.45;;
75589;SDS011;64169;47.240;11.312;2023-04-10T03:19:14;8.52;;;3.47;;
75589;SDS011;64169;47.240;11.312;2023-04-10T03:21:40;8.40;;;3.85;;
75589;SDS011;64169;47.240;11.312;2023-04-10T03:24:06;6.80;;;3.30;;
75589;SDS011;64169;47.240;11.312;2023-04-10T03:26:31;9.18;;;2.95;;
75589;SDS011;64169;47.240;11.312;2023-04-10T03:28:57;9.45;;;3.35;;
75589;SDS011;64169;47.240;11.312;2023-04-10T03:31:22;9.05;;;3.85;;
75589;SDS011;64169;47.240;11.312;2023-04-10T03:33:48;8.70;;;3.50;;
75589;SDS011;64169;47.240;11.312;2023-04-10T03:36:13;7.10;;;3.42;;
75589;SDS011;64169;47.240;11.312;2023-04-10T03:38:39;9.38;;;4.05;;
75589;SDS011;64169;47.240;11.312;2023-04-10T03:41:04;10.65;;;3.55;;
75589;SDS011;64169;47.240;11.312;2023-04-10T03:43:30;12.05;;;4.20;;
75589;SDS011;64169;47.240;11.312;2023-04-10T03:45:56;9.23;;;3.72;;
75589;SDS011;64169;47.240;11.312;2023-04-10T03:48:21;9.88;;;3.85;;
75589;SDS011;64169;47.240;11.312;2023-04-10T03:50:46;9.32;;;3.10;;
75589;SDS011;64169;47.240;11.312;2023-04-10T03:53:12;9.35;;;3.13;;
75589;SDS011;64169;47.240;11.312;2023-04-10T03:55:37;9.05;;;3.70;;
75589;SDS011;64169;47.240;11.312;2023-04-10T03:58:03;8.50;;;3.45;;
75589;SDS011;64169;47.240;11.312;2023-04-10T04:00:32;9.70;;;4.07;;
75589;SDS011;64169;47.240;11.312;2023-04-10T04:02:57;10.52;;;3.55;;
75589;SDS011;64169;47.240;11.312;2023-04-10T04:05:24;8.73;;;3.55;;
75589;SDS011;64169;47.240;11.312;2023-04-10T04:07:50;7.47;;;3.25;;
75589;SDS011;64169;47.240;11.312;2023-04-10T04:10:16;7.47;;;3.10;;
75589;SDS011;64169;47.240;11.312;2023-04-10T04:12:41;9.80;;;2.97;;
75589;SDS011;64169;47.240;11.312;2023-04-10T04:15:06;8.32;;;2.90;;
75589;SDS011;64169;47.240;11.312;2023-04-10T04:17:32;7.97;;;3.30;;
75589;SDS011;64169;47.240;11.312;2023-04-10T04:19:58;7.35;;;2.88;;
75589;SDS011;64169;47.240;11.312;2023-04-10T04:22:23;7.35;;;2.40;;
75589;SDS011;64169;47.240;11.312;2023-04-10T04:24:48;10.18;;;3.05;;
75589;SDS011;64169;47.240;11.312;2023-04-10T04:27:14;16.88;;;5.53;;
75589;SDS011;64169;47.240;11.312;2023-04-10T04:29:40;11.07;;;3.70;;
75589;SDS011;64169;47.240;11.312;2023-04-10T04:32:05;12.48;;;4.53;;
75589;SDS011;64169;47.240;11.312;2023-04-10T04:34:31;12.13;;;4.85;;
75589;SDS011;64169;47.240;11.312;2023-04-10T04:36:56;9.93;;;3.97;;
75589;SDS011;64169;47.240;11.312;2023-04-10T04:39:21;9.23;;;3.83;;
75589;SDS011;64169;47.240;11.312;2023-04-10T04:41:47;11.63;;;4.30;;
75589;SDS011;64169;47.240;11.312;2023-04-10T04:44:13;9.38;;;3.65;;
75589;SDS011;64169;47.240;11.312;2023-04-10T04:46:38;13.25;;;5.00;;
75589;SDS011;64169;47.240;11.312;2023-04-10T04:49:03;12.73;;;4.47;;
75589;SDS011;64169;47.240;11.312;2023-04-10T04:51:29;9.13;;;3.92;;
75589;SDS011;64169;47.240;11.312;2023-04-10T04:53:54;8.38;;;3.72;;
75589;SDS011;64169;47.240;11.312;2023-04-10T04:56:20;11.27;;;5.13;;
75589;SDS011;64169;47.240;11.312;2023-04-10T04:58:45;9.93;;;5.00;;
75589;SDS011;64169;47.240;11.312;2023-04-10T05:01:11;7.95;;;3.33;;
75589;SDS011;64169;47.240;11.312;2023-04-10T05:03:36;9.32;;;3.30;;
75589;SDS011;64169;47.240;11.312;2023-04-10T05:06:02;10.15;;;3.90;;
75589;SDS011;64169;47.240;11.312;2023-04-10T05:08:27;9.25;;;3.53;;
75589;SDS011;64169;47.240;11.312;2023-04-10T05:10:53;8.65;;;3.65;;
75589;SDS011;64169;47.240;11.312;2023-04-10T05:13:18;9.32;;;3.60;;
75589;SDS011;64169;47.240;11.312;2023-04-10T05:15:44;8.05;;;3.17;;
75589;SDS011;64169;47.240;11.312;2023-04-10T05:18:10;8.30;;;3.60;;
75589;SDS011;64169;47.240;11.312;2023-04-10T05:20:35;10.55;;;3.70;;
75589;SDS011;64169;47.240;11.312;2023-04-10T05:23:01;8.85;;;2.70;;
75589;SDS011;64169;47.240;11.312;2023-04-10T05:25:27;7.13;;;2.50;;
75589;SDS011;64169;47.240;11.312;2023-04-10T05:27:52;6.63;;;2.40;;
75589;SDS011;64169;47.240;11.312;2023-04-10T05:30:18;7.72;;;2.78;;
75589;SDS011;64169;47.240;11.312;2023-04-10T05:32:43;8.70;;;2.97;;
75589;SDS011;64169;47.240;11.312;2023-04-10T05:35:10;8.52;;;2.83;;
75589;SDS011;64169;47.240;11.312;2023-04-10T05:37:35;7.70;;;2.67;;
75589;SDS011;64169;47.240;11.312;2023-04-10T05:40:01;14.75;;;4.57;;
75589;SDS011;64169;47.240;11.312;2023-04-10T05:42:26;9.57;;;3.47;;
75589;SDS011;64169;47.240;11.312;2023-04-10T05:44:51;9.40;;;3.22;;
75589;SDS011;64169;47.240;11.312;2023-04-10T05:47:17;11.50;;;3.63;;
75589;SDS011;64169;47.240;11.312;2023-04-10T05:49:42;8.70;;;2.58;;
75589;SDS011;64169;47.240;11.312;2023-04-10T05:52:08;8.50;;;2.58;;
75589;SDS011;64169;47.240;11.312;2023-04-10T05:54:33;9.13;;;2.65;;
75589;SDS011;64169;47.240;11.312;2023-04-10T05:56:59;9.90;;;3.17;;
75589;SDS011;64169;47.240;11.312;2023-04-10T05:59:25;9.40;;;2.42;;
75589;SDS011;64169;47.240;11.312;2023-04-10T06:01:51;8.27;;;2.90;;
75589;SDS011;64169;47.240;11.312;2023-04-10T06:04:16;7.40;;;2.47;;
75589;SDS011;64169;47.240;11.312;2023-04-10T06:06:42;8.02;;;2.70;;
75589;SDS011;64169;47.240;11.312;2023-04-10T06:09:07;9.15;;;3.30;;
75589;SDS011;64169;47.240;11.312;2023-04-10T06:11:33;12.15;;;4.20;;
75589;SDS011;64169;47.240;11.312;2023-04-10T06:13:58;12.10;;;4.18;;
75589;SDS011;64169;47.240;11.312;2023-04-10T06:16:23;10.60;;;3.53;;
75589;SDS011;64169;47.240;11.312;2023-04-10T06:18:49;10.95;;;3.88;;
75589;SDS011;64169;47.240;11.312;2023-04-10T06:21:16;8.70;;;3.28;;
75589;SDS011;64169;47.240;11.312;2023-04-10T06:23:42;8.65;;;3.75;;
75589;SDS011;64169;47.240;11.312;2023-04-10T06:26:07;9.80;;;3.75;;
75589;SDS011;64169;47.240;11.312;2023-04-10T06:28:32;9.57;;;3.05;;
75589;SDS011;64169;47.240;11.312;2023-04-10T06:30:58;9.07;;;3.22;;
75589;SDS011;64169;47.240;11.312;2023-04-10T06:33:27;8.60;;;3.58;;
75589;SDS011;64169;47.240;11.312;2023-04-10T06:35:52;7.75;;;3.17;;
75589;SDS011;64169;47.240;11.312;2023-04-10T06:38:18;10.32;;;2.85;;
75589;SDS011;64169;47.240;11.312;2023-04-10T06:40:43;9.43;;;3.35;;
75589;SDS011;64169;47.240;11.312;2023-04-10T06:43:09;10.32;;;3.95;;
75589;SDS011;64169;47.240;11.312;2023-04-10T06:45:34;10.32;;;3.75;;
75589;SDS011;64169;47.240;11.312;2023-04-10T06:48:00;9.40;;;3.38;;
75589;SDS011;64169;47.240;11.312;2023-04-10T06:50:25;9.60;;;3.40;;
75589;SDS011;64169;47.240;11.312;2023-04-10T06:52:51;10.50;;;3.70;;
75589;SDS011;64169;47.240;11.312;2023-04-10T06:55:19;9.95;;;3.65;;
75589;SDS011;64169;47.240;11.312;2023-04-10T06:57:45;9.30;;;3.85;;
75589;SDS011;64169;47.240;11.312;2023-04-10T07:00:11;11.27;;;3.80;;
75589;SDS011;64169;47.240;11.312;2023-04-10T07:02:36;10.30;;;3.92;;
75589;SDS011;64169;47.240;11.312;2023-04-10T07:05:02;10.35;;;4.47;;
75589;SDS011;64169;47.240;11.312;2023-04-10T07:07:27;11.63;;;4.22;;
75589;SDS011;64169;47.240;11.312;2023-04-10T07:09:53;9.93;;;4.13;;
75589;SDS011;64169;47.240;11.312;2023-04-10T07:12:18;8.85;;;3.95;;
75589;SDS011;64169;47.240;11.312;2023-04-10T07:14:44;10.13;;;3.67;;
75589;SDS011;64169;47.240;11.312;2023-04-10T07:17:09;9.52;;;3.97;;
75589;SDS011;64169;47.240;11.312;2023-04-10T07:19:35;10.52;;;4.03;;
75589;SDS011;64169;47.240;11.312;2023-04-10T07:22:02;13.98;;;4.32;;
75589;SDS011;64169;47.240;11.312;2023-04-10T07:24:28;11.18;;;4.57;;
75589;SDS011;64169;47.240;11.312;2023-04-10T07:26:53;13.85;;;4.25;;
75589;SDS011;64169;47.240;11.312;2023-04-10T07:29:19;9.48;;;4.22;;
75589;SDS011;64169;47.240;11.312;2023-04-10T07:31:44;10.63;;;4.22;;
75589;SDS011;64169;47.240;11.312;2023-04-10T07:34:10;13.73;;;4.35;;
75589;SDS011;64169;47.240;11.312;2023-04-10T07:36:36;13.50;;;4.10;;
75589;SDS011;64169;47.240;11.312;2023-04-10T07:39:01;9.73;;;3.60;;
75589;SDS011;64169;47.240;11.312;2023-04-10T07:41:27;10.52;;;4.28;;
75589;SDS011;64169;47.240;11.312;2023-04-10T07:43:52;8.75;;;3.85;;
75589;SDS011;64169;47.240;11.312;2023-04-10T07:46:18;10.70;;;4.68;;
75589;SDS011;64169;47.240;11.312;2023-04-10T07:48:43;12.50;;;4.28;;
75589;SDS011;64169;47.240;11.312;2023-04-10T07:51:11;11.93;;;4.30;;
75589;SDS011;64169;47.240;11.312;2023-04-10T07:53:36;12.05;;;4.78;;
75589;SDS011;64169;47.240;11.312;2023-04-10T07:56:03;10.40;;;4.05;;
75589;SDS011;64169;47.240;11.312;2023-04-10T07:58:29;10.25;;;4.65;;
75589;SDS011;64169;47.240;11.312;2023-04-10T08:00:56;11.15;;;4.82;;
75589;SDS011;64169;47.240;11.312;2023-04-10T08:03:21;11.85;;;4.57;;
75589;SDS011;64169;47.240;11.312;2023-04-10T08:05:47;11.23;;;4.55;;
75589;SDS011;64169;47.240;11.312;2023-04-10T08:08:14;10.90;;;4.32;;
75589;SDS011;64169;47.240;11.312;2023-04-10T08:10:40;10.18;;;4.47;;
75589;SDS011;64169;47.240;11.312;2023-04-10T08:13:06;9.60;;;3.92;;
75589;SDS011;64169;47.240;11.312;2023-04-10T08:15:31;9.15;;;3.85;;
75589;SDS011;64169;47.240;11.312;2023-04-10T08:17:57;10.98;;;4.10;;
75589;SDS011;64169;47.240;11.312;2023-04-10T08:20:22;10.05;;;3.65;;
75589;SDS011;64169;47.240;11.312;2023-04-10T08:22:48;9.55;;;3.90;;
75589;SDS011;64169;47.240;11.312;2023-04-10T08:25:13;10.88;;;4.30;;
75589;SDS011;64169;47.240;11.312;2023-04-10T08:27:39;10.23;;;3.97;;
75589;SDS011;64169;47.240;11.312;2023-04-10T08:30:05;9.85;;;3.92;;
75589;SDS011;64169;47.240;11.312;2023-04-10T08:32:31;8.50;;;4.13;;
75589;SDS011;64169;47.240;11.312;2023-04-10T08:34:56;9.70;;;3.75;;
75589;SDS011;64169;47.240;11.312;2023-04-10T08:37:21;10.20;;;3.58;;
75589;SDS011;64169;47.240;11.312;2023-04-10T08:39:47;7.57;;;3.47;;
75589;SDS011;64169;47.240;11.312;2023-04-10T08:42:12;7.90;;;3.47;;
75589;SDS011;64169;47.240;11.312;2023-04-10T08:44:38;13.30;;;5.20;;
75589;SDS011;64169;47.240;11.312;2023-04-10T08:47:05;8.88;;;3.47;;
75589;SDS011;64169;47.240;11.312;2023-04-10T08:52:11;8.45;;;3.35;;
75589;SDS011;64169;47.240;11.312;2023-04-10T08:54:40;8.95;;;3.30;;
75589;SDS011;64169;47.240;11.312;2023-04-10T08:57:08;9.57;;;3.15;;
75589;SDS011;64169;47.240;11.312;2023-04-10T08:59:41;9.00;;;3.15;;
75589;SDS011;64169;47.240;11.312;2023-04-10T09:02:07;9.23;;;3.78;;
75589;SDS011;64169;47.240;11.312;2023-04-10T09:04:32;9.82;;;3.33;;
75589;SDS011;64169;47.240;11.312;2023-04-10T09:06:57;9.77;;;3.28;;
75589;SDS011;64169;47.240;11.312;2023-04-10T09:09:24;8.13;;;3.08;;
75589;SDS011;64169;47.240;11.312;2023-04-10T09:14:19;9.55;;;3.55;;
75589;SDS011;64169;47.240;11.312;2023-04-10T09:16:53;7.10;;;2.72;;
75589;SDS011;64169;47.240;11.312;2023-04-10T09:19:37;7.22;;;3.10;;
75589;SDS011;64169;47.240;11.312;2023-04-10T09:24:28;8.10;;;2.70;;
75589;SDS011;64169;47.240;11.312;2023-04-10T09:26:53;7.90;;;2.97;;
75589;SDS011;64169;47.240;11.312;2023-04-10T09:29:19;8.65;;;2.72;;
75589;SDS011;64169;47.240;11.312;2023-04-10T09:31:44;8.02;;;3.13;;
75589;SDS011;64169;47.240;11.312;2023-04-10T09:34:14;6.15;;;2.38;;
75589;SDS011;64169;47.240;11.312;2023-04-10T09:36:44;6.85;;;2.33;;
75589;SDS011;64169;47.240;11.312;2023-04-10T09:39:17;7.15;;;2.58;;
75589;SDS011;64169;47.240;11.312;2023-04-10T09:41:47;7.22;;;2.72;;
75589;SDS011;64169;47.240;11.312;2023-04-10T09:44:13;7.22;;;2.72;;
75589;SDS011;64169;47.240;11.312;2023-04-10T09:46:38;7.03;;;2.47;;
75589;SDS011;64169;47.240;11.312;2023-04-10T09:49:04;6.75;;;2.85;;
75589;SDS011;64169;47.240;11.312;2023-04-10T09:51:31;7.68;;;2.70;;
75589;SDS011;64169;47.240;11.312;2023-04-10T09:53:58;5.72;;;2.50;;
75589;SDS011;64169;47.240;11.312;2023-04-10T09:56:24;9.35;;;3.20;;
75589;SDS011;64169;47.240;11.312;2023-04-10T09:58:52;6.25;;;2.40;;
75589;SDS011;64169;47.240;11.312;2023-04-10T10:01:21;8.75;;;2.25;;
75589;SDS011;64169;47.240;11.312;2023-04-10T10:03:47;6.15;;;2.42;;
75589;SDS011;64169;47.240;11.312;2023-04-10T10:06:12;6.95;;;2.78;;
75589;SDS011;64169;47.240;11.312;2023-04-10T10:08:38;7.70;;;2.42;;
75589;SDS011;64169;47.240;11.312;2023-04-10T10:11:04;6.05;;;2.03;;
75589;SDS011;64169;47.240;11.312;2023-04-10T10:13:40;6.63;;;2.20;;
75589;SDS011;64169;47.240;11.312;2023-04-10T10:16:11;5.80;;;1.90;;
75589;SDS011;64169;47.240;11.312;2023-04-10T10:18:46;6.47;;;2.08;;
75589;SDS011;64169;47.240;11.312;2023-04-10T10:21:19;5.22;;;1.95;;
75589;SDS011;64169;47.240;11.312;2023-04-10T10:23:44;5.45;;;2.03;;
75589;SDS011;64169;47.240;11.312;2023-04-10T10:26:12;5.05;;;2.15;;
75589;SDS011;64169;47.240;11.312;2023-04-10T10:28:39;5.60;;;2.13;;
75589;SDS011;64169;47.240;11.312;2023-04-10T10:31:05;11.00;;;3.38;;
75589;SDS011;64169;47.240;11.312;2023-04-10T10:33:30;4.75;;;1.90;;
75589;SDS011;64169;47.240;11.312;2023-04-10T10:35:58;6.30;;;1.92;;
75589;SDS011;64169;47.240;11.312;2023-04-10T10:38:24;5.53;;;1.95;;
75589;SDS011;64169;47.240;11.312;2023-04-10T10:43:57;3.83;;;1.33;;
75589;SDS011;64169;47.240;11.312;2023-04-10T10:49:02;3.85;;;1.30;;
75589;SDS011;64169;47.240;11.312;2023-04-10T10:54:28;3.95;;;1.40;;
75589;SDS011;64169;47.240;11.312;2023-04-10T10:56:54;4.25;;;1.70;;
75589;SDS011;64169;47.240;11.312;2023-04-10T11:04:42;3.20;;;1.10;;
75589;SDS011;64169;47.240;11.312;2023-04-10T11:07:11;3.92;;;1.30;;
75589;SDS011;64169;47.240;11.312;2023-04-10T11:12:08;4.60;;;1.50;;
75589;SDS011;64169;47.240;11.312;2023-04-10T11:14:33;3.75;;;1.20;;
75589;SDS011;64169;47.240;11.312;2023-04-10T11:16:59;3.78;;;1.17;;
75589;SDS011;64169;47.240;11.312;2023-04-10T11:19:24;4.25;;;1.20;;
75589;SDS011;64169;47.240;11.312;2023-04-10T11:24:25;3.60;;;1.08;;
75589;SDS011;64169;47.240;11.312;2023-04-10T11:26:51;4.45;;;1.33;;
75589;SDS011;64169;47.240;11.312;2023-04-10T11:31:46;4.07;;;1.23;;
75589;SDS011;64169;47.240;11.312;2023-04-10T11:34:12;8.52;;;2.60;;
75589;SDS011;64169;47.240;11.312;2023-04-10T11:36:41;4.78;;;1.60;;
75589;SDS011;64169;47.240;11.312;2023-04-10T11:39:11;3.63;;;1.13;;
75589;SDS011;64169;47.240;11.312;2023-04-10T11:41:41;5.78;;;1.95;;
75589;SDS011;64169;47.240;11.312;2023-04-10T11:46:51;5.03;;;1.60;;
75589;SDS011;64169;47.240;11.312;2023-04-10T11:49:21;3.95;;;1.23;;
75589;SDS011;64169;47.240;11.312;2023-04-10T11:52:05;4.65;;;1.50;;
75589;SDS011;64169;47.240;11.312;2023-04-10T11:54:31;5.57;;;1.70;;
75589;SDS011;64169;47.240;11.312;2023-04-10T11:57:03;3.25;;;1.15;;
75589;SDS011;64169;47.240;11.312;2023-04-10T11:59:29;5.82;;;2.30;;
75589;SDS011;64169;47.240;11.312;2023-04-10T12:02:29;4.57;;;1.60;;
75589;SDS011;64169;47.240;11.312;2023-04-10T12:04:56;3.78;;;1.48;;
75589;SDS011;64169;47.240;11.312;2023-04-10T12:07:22;4.70;;;1.45;;
75589;SDS011;64169;47.240;11.312;2023-04-10T12:09:55;4.70;;;1.58;;
75589;SDS011;64169;47.240;11.312;2023-04-10T12:12:26;5.68;;;1.63;;
75589;SDS011;64169;47.240;11.312;2023-04-10T12:14:58;4.30;;;1.63;;
75589;SDS011;64169;47.240;11.312;2023-04-10T12:17:24;4.50;;;1.73;;
75589;SDS011;64169;47.240;11.312;2023-04-10T12:19:49;5.00;;;2.25;;
75589;SDS011;64169;47.240;11.312;2023-04-10T12:22:15;4.38;;;1.48;;
75589;SDS011;64169;47.240;11.312;2023-04-10T12:24:50;4.43;;;1.60;;
75589;SDS011;64169;47.240;11.312;2023-04-10T12:27:21;4.20;;;1.65;;
75589;SDS011;64169;47.240;11.312;2023-04-10T12:29:51;4.32;;;1.42;;
75589;SDS011;64169;47.240;11.312;2023-04-10T12:32:17;5.00;;;1.60;;
75589;SDS011;64169;47.240;11.312;2023-04-10T12:34:53;4.40;;;1.52;;
75589;SDS011;64169;47.240;11.312;2023-04-10T12:37:21;4.45;;;1.40;;
75589;SDS011;64169;47.240;11.312;2023-04-10T12:39:47;4.43;;;1.42;;
75589;SDS011;64169;47.240;11.312;2023-04-10T12:42:16;4.20;;;1.50;;
75589;SDS011;64169;47.240;11.312;2023-04-10T12:47:19;4.47;;;1.45;;
75589;SDS011;64169;47.240;11.312;2023-04-10T12:52:32;3.88;;;1.20;;
75589;SDS011;64169;47.240;11.312;2023-04-10T12:57:44;4.05;;;1.35;;
75589;SDS011;64169;47.240;11.312;2023-04-10T13:00:11;4.07;;;1.33;;
75589;SDS011;64169;47.240;11.312;2023-04-10T13:02:39;4.28;;;1.40;;
75589;SDS011;64169;47.240;11.312;2023-04-10T13:05:05;3.92;;;1.42;;
75589;SDS011;64169;47.240;11.312;2023-04-10T13:07:31;3.95;;;1.30;;
75589;SDS011;64169;47.240;11.312;2023-04-10T13:09:57;3.78;;;1.40;;
75589;SDS011;64169;47.240;11.312;2023-04-10T13:12:23;4.10;;;1.38;;
75589;SDS011;64169;47.240;11.312;2023-04-10T13:14:50;3.53;;;1.40;;
75589;SDS011;64169;47.240;11.312;2023-04-10T13:17:18;4.13;;;1.45;;
75589;SDS011;64169;47.240;11.312;2023-04-10T13:19:48;4.10;;;1.30;;
75589;SDS011;64169;47.240;11.312;2023-04-10T13:22:14;3.85;;;1.17;;
75589;SDS011;64169;47.240;11.312;2023-04-10T13:24:40;7.82;;;3.10;;
75589;SDS011;64169;47.240;11.312;2023-04-10T13:27:06;3.20;;;1.20;;
75589;SDS011;64169;47.240;11.312;2023-04-10T13:32:53;4.43;;;1.70;;
75589;SDS011;64169;47.240;11.312;2023-04-10T13:35:19;3.33;;;1.17;;
75589;SDS011;64169;47.240;11.312;2023-04-10T13:37:45;3.17;;;1.20;;
75589;SDS011;64169;47.240;11.312;2023-04-10T13:40:11;4.40;;;1.60;;
75589;SDS011;64169;47.240;11.312;2023-04-10T13:42:36;4.57;;;1.70;;
75589;SDS011;64169;47.240;11.312;2023-04-10T13:45:02;4.95;;;1.30;;
75589;SDS011;64169;47.240;11.312;2023-04-10T13:47:28;3.70;;;1.15;;
75589;SDS011;64169;47.240;11.312;2023-04-10T13:49:53;3.40;;;1.27;;
75589;SDS011;64169;47.240;11.312;2023-04-10T13:52:18;3.63;;;1.17;;
75589;SDS011;64169;47.240;11.312;2023-04-10T13:54:44;3.97;;;1.38;;
75589;SDS011;64169;47.240;11.312;2023-04-10T13:57:10;4.18;;;1.33;;
75589;SDS011;64169;47.240;11.312;2023-04-10T13:59:35;3.70;;;1.35;;
75589;SDS011;64169;47.240;11.312;2023-04-10T14:02:00;6.20;;;2.60;;
75589;SDS011;64169;47.240;11.312;2023-04-10T14:04:26;4.55;;;1.50;;
75589;SDS011;64169;47.240;11.312;2023-04-10T14:06:51;4.00;;;1.40;;
75589;SDS011;64169;47.240;11.312;2023-04-10T14:09:21;3.40;;;1.30;;
75589;SDS011;64169;47.240;11.312;2023-04-10T14:11:47;4.55;;;1.50;;
75589;SDS011;64169;47.240;11.312;2023-04-10T14:14:12;4.95;;;1.58;;
75589;SDS011;64169;47.240;11.312;2023-04-10T14:16:38;3.03;;;1.23;;
75589;SDS011;64169;47.240;11.312;2023-04-10T14:19:03;4.82;;;1.73;;
75589;SDS011;64169;47.240;11.312;2023-04-10T14:21:29;4.03;;;1.35;;
75589;SDS011;64169;47.240;11.312;2023-04-10T14:23:55;3.95;;;1.50;;
75589;SDS011;64169;47.240;11.312;2023-04-10T14:26:21;4.35;;;1.45;;
75589;SDS011;64169;47.240;11.312;2023-04-10T14:28:47;3.45;;;1.20;;
75589;SDS011;64169;47.240;11.312;2023-04-10T14:31:12;4.13;;;1.35;;
75589;SDS011;64169;47.240;11.312;2023-04-10T14:33:38;3.85;;;1.33;;
75589;SDS011;64169;47.240;11.312;2023-04-10T14:36:03;4.20;;;1.38;;
75589;SDS011;64169;47.240;11.312;2023-04-10T14:38:29;4.22;;;1.50;;
75589;SDS011;64169;47.240;11.312;2023-04-10T14:40:54;3.75;;;1.40;;
75589;SDS011;64169;47.240;11.312;2023-04-10T14:43:20;6.00;;;1.50;;
75589;SDS011;64169;47.240;11.312;2023-04-10T14:45:45;4.53;;;1.60;;
75589;SDS011;64169;47.240;11.312;2023-04-10T14:48:11;5.63;;;1.42;;
75589;SDS011;64169;47.240;11.312;2023-04-10T14:50:36;4.45;;;1.50;;
75589;SDS011;64169;47.240;11.312;2023-04-10T14:53:02;4.30;;;1.52;;
75589;SDS011;64169;47.240;11.312;2023-04-10T14:55:27;4.47;;;1.40;;
75589;SDS011;64169;47.240;11.312;2023-04-10T14:57:53;4.70;;;1.60;;
75589;SDS011;64169;47.240;11.312;2023-04-10T15:00:19;4.35;;;1.60;;
75589;SDS011;64169;47.240;11.312;2023-04-10T15:02:44;4.97;;;1.75;;
75589;SDS011;64169;47.240;11.312;2023-04-10T15:05:10;9.55;;;1.95;;
75589;SDS011;64169;47.240;11.312;2023-04-10T15:07:36;3.38;;;1.17;;
75589;SDS011;64169;47.240;11.312;2023-04-10T15:10:01;4.13;;;1.33;;
75589;SDS011;64169;47.240;11.312;2023-04-10T15:12:27;7.82;;;2.00;;
75589;SDS011;64169;47.240;11.312;2023-04-10T15:14:52;4.07;;;1.35;;
75589;SDS011;64169;47.240;11.312;2023-04-10T15:17:21;5.35;;;1.75;;
75589;SDS011;64169;47.240;11.312;2023-04-10T15:19:47;3.60;;;1.35;;